Terminal Aerodrome Forecast
Issued by NWS

Home | Current Version | Previous Version | Text Only | Print | Product List | Glossary Off
Versions: 1 2 3 4 5 6 7 8 9 10 11 12 13 14 15 16 17 18 19 20 21

628
FTUS43 KIWX 240412 AAA
TAFSBN
TAF AMD
KSBN 240412Z 2404/2424 03006KT 5SM BR VCSH BKN035 OVC070
      TEMPO 2404/2406 4SM -SHRA
     FM240600 10009KT 5SM BR VCTS OVC015CB WS020/20043KT
     FM240900 14010KT P6SM OVC015 WS020/20043KT
     FM241300 17012KT P6SM OVC008
     FM242000 20014KT 4SM -SHRA VCTS OVC010CB=

USA.gov is the U.S. government's official web portal to all federal, state and local government web resources and services.